Terminal Aerodrome Forecast
Issued by NWS Twin Cities, MN

Home | Current Version | Previous Version | Graphics & Text | Print | Product List | Glossary On
Versions: 1 2 3 4 5 6 7 8 9 10 11 12 13 14 15 16 17 18 19 20 21 22 23 24 25 26 27 28 29 30 31 32
173
FTUS43 KMPX 270903 AAA
TAFMSP
TAF AMD
KMSP 270903Z 2710/2812 29012KT P6SM SKC
     FM271400 30015G24KT P6SM SCT025 BKN035
     FM272200 30013G22KT P6SM -SHRA SCT025 OVC040
     FM280200 31011KT P6SM BKN040=

USA.gov is the U.S. government's official web portal to all federal, state and local government web resources and services.